sensor_id;sensor_type;location;lat;lon;timestamp;temperature;humidity
18189;DHT22;9219;50.396;8.546;2022-10-04T00:02:20;13.20;99.90
18189;DHT22;9219;50.396;8.546;2022-10-04T00:04:53;13.20;99.90
18189;DHT22;9219;50.396;8.546;2022-10-04T00:15:19;13.20;99.90
18189;DHT22;9219;50.396;8.546;2022-10-04T00:18:07;13.30;99.90
18189;DHT22;9219;50.396;8.546;2022-10-04T00:21:02;13.20;99.90
18189;DHT22;9219;50.396;8.546;2022-10-04T00:23:42;13.20;99.90
18189;DHT22;9219;50.396;8.546;2022-10-04T00:28:56;13.20;99.90
18189;DHT22;9219;50.396;8.546;2022-10-04T00:36:59;13.10;99.90
18189;DHT22;9219;50.396;8.546;2022-10-04T00:39:40;13.00;99.90
18189;DHT22;9219;50.396;8.546;2022-10-04T00:45:33;13.00;99.90
18189;DHT22;9219;50.396;8.546;2022-10-04T00:48:29;13.00;99.90
18189;DHT22;9219;50.396;8.546;2022-10-04T00:51:03;12.90;99.90
18189;DHT22;9219;50.396;8.546;2022-10-04T00:56:29;12.90;99.90
18189;DHT22;9219;50.396;8.546;2022-10-04T00:59:32;12.80;99.90
18189;DHT22;9219;50.396;8.546;2022-10-04T01:02:04;12.80;99.90
18189;DHT22;9219;50.396;8.546;2022-10-04T01:04:40;12.80;99.90
18189;DHT22;9219;50.396;8.546;2022-10-04T01:07:10;12.80;99.90
18189;DHT22;9219;50.396;8.546;2022-10-04T01:09:45;12.80;99.90
18189;DHT22;9219;50.396;8.546;2022-10-04T01:12:25;12.80;99.90
18189;DHT22;9219;50.396;8.546;2022-10-04T01:19:59;12.80;99.90
18189;DHT22;9219;50.396;8.546;2022-10-04T01:22:36;12.80;99.90
18189;DHT22;9219;50.396;8.546;2022-10-04T01:25:04;12.80;99.90
18189;DHT22;9219;50.396;8.546;2022-10-04T01:27:39;12.80;99.90
18189;DHT22;9219;50.396;8.546;2022-10-04T01:30:09;12.70;99.90
18189;DHT22;9219;50.396;8.546;2022-10-04T01:32:38;12.70;99.90
18189;DHT22;9219;50.396;8.546;2022-10-04T01:35:08;12.70;99.90
18189;DHT22;9219;50.396;8.546;2022-10-04T01:45:00;12.70;99.90
18189;DHT22;9219;50.396;8.546;2022-10-04T01:47:32;12.40;99.90
18189;DHT22;9219;50.396;8.546;2022-10-04T01:50:05;12.30;99.90
18189;DHT22;9219;50.396;8.546;2022-10-04T01:52:43;12.40;99.90
18189;DHT22;9219;50.396;8.546;2022-10-04T01:55:14;12.50;99.90
18189;DHT22;9219;50.396;8.546;2022-10-04T01:57:47;12.50;99.90
18189;DHT22;9219;50.396;8.546;2022-10-04T02:00:17;12.50;99.90
18189;DHT22;9219;50.396;8.546;2022-10-04T02:07:51;12.60;99.90
18189;DHT22;9219;50.396;8.546;2022-10-04T02:10:22;12.60;99.90
18189;DHT22;9219;50.396;8.546;2022-10-04T02:12:52;12.60;99.90
18189;DHT22;9219;50.396;8.546;2022-10-04T02:15:23;12.50;99.90
18189;DHT22;9219;50.396;8.546;2022-10-04T02:17:54;12.50;99.90
18189;DHT22;9219;50.396;8.546;2022-10-04T02:20:24;12.50;99.90
18189;DHT22;9219;50.396;8.546;2022-10-04T02:22:56;12.40;99.90
18189;DHT22;9219;50.396;8.546;2022-10-04T02:25:24;12.40;99.90
18189;DHT22;9219;50.396;8.546;2022-10-04T02:27:53;12.40;99.90
18189;DHT22;9219;50.396;8.546;2022-10-04T02:35:54;12.40;99.90
18189;DHT22;9219;50.396;8.546;2022-10-04T02:38:28;12.30;99.90
18189;DHT22;9219;50.396;8.546;2022-10-04T02:41:04;12.30;99.90
18189;DHT22;9219;50.396;8.546;2022-10-04T02:43:36;12.30;99.90
18189;DHT22;9219;50.396;8.546;2022-10-04T02:46:08;12.40;99.90
18189;DHT22;9219;50.396;8.546;2022-10-04T02:48:44;12.40;99.90
18189;DHT22;9219;50.396;8.546;2022-10-04T02:56:24;12.40;99.90
18189;DHT22;9219;50.396;8.546;2022-10-04T02:58:52;12.50;99.90
18189;DHT22;9219;50.396;8.546;2022-10-04T03:01:24;12.40;99.90
18189;DHT22;9219;50.396;8.546;2022-10-04T03:03:55;12.40;99.90
18189;DHT22;9219;50.396;8.546;2022-10-04T03:06:28;12.40;99.90
18189;DHT22;9219;50.396;8.546;2022-10-04T03:09:00;12.40;99.90
18189;DHT22;9219;50.396;8.546;2022-10-04T03:11:33;12.50;99.90
18189;DHT22;9219;50.396;8.546;2022-10-04T03:14:04;12.50;99.90
18189;DHT22;9219;50.396;8.546;2022-10-04T03:21:44;12.40;99.90
18189;DHT22;9219;50.396;8.546;2022-10-04T03:24:18;12.20;99.90
18189;DHT22;9219;50.396;8.546;2022-10-04T03:26:48;12.20;99.90
18189;DHT22;9219;50.396;8.546;2022-10-04T03:29:17;12.10;99.90
18189;DHT22;9219;50.396;8.546;2022-10-04T03:31:47;12.10;99.90
18189;DHT22;9219;50.396;8.546;2022-10-04T03:34:17;12.20;99.90
18189;DHT22;9219;50.396;8.546;2022-10-04T03:36:48;12.20;99.90
18189;DHT22;9219;50.396;8.546;2022-10-04T03:39:22;12.30;99.90
18189;DHT22;9219;50.396;8.546;2022-10-04T03:45:03;12.30;99.90
18189;DHT22;9219;50.396;8.546;2022-10-04T03:47:36;12.20;99.90
18189;DHT22;9219;50.396;8.546;2022-10-04T03:50:12;12.20;99.90
18189;DHT22;9219;50.396;8.546;2022-10-04T03:52:47;12.10;99.90
18189;DHT22;9219;50.396;8.546;2022-10-04T03:55:18;12.10;99.90
18189;DHT22;9219;50.396;8.546;2022-10-04T03:57:46;12.10;99.90
18189;DHT22;9219;50.396;8.546;2022-10-04T04:00:16;12.20;99.90
18189;DHT22;9219;50.396;8.546;2022-10-04T04:02:47;12.20;99.90
18189;DHT22;9219;50.396;8.546;2022-10-04T04:13:24;12.20;99.90
18189;DHT22;9219;50.396;8.546;2022-10-04T04:15:54;12.10;99.90
18189;DHT22;9219;50.396;8.546;2022-10-04T04:18:23;12.10;99.90
18189;DHT22;9219;50.396;8.546;2022-10-04T04:20:53;12.20;99.90
18189;DHT22;9219;50.396;8.546;2022-10-04T04:23:26;12.30;99.90
18189;DHT22;9219;50.396;8.546;2022-10-04T04:26:23;12.30;99.90
18189;DHT22;9219;50.396;8.546;2022-10-04T04:28:57;12.30;99.90
18189;DHT22;9219;50.396;8.546;2022-10-04T04:38:48;12.40;99.90
18189;DHT22;9219;50.396;8.546;2022-10-04T04:41:31;12.30;99.90
18189;DHT22;9219;50.396;8.546;2022-10-04T04:44:00;12.30;99.90
18189;DHT22;9219;50.396;8.546;2022-10-04T04:46:29;12.30;99.90
18189;DHT22;9219;50.396;8.546;2022-10-04T04:49:00;12.30;99.90
18189;DHT22;9219;50.396;8.546;2022-10-04T04:51:30;12.30;99.90
18189;DHT22;9219;50.396;8.546;2022-10-04T04:54:02;12.40;99.90
18189;DHT22;9219;50.396;8.546;2022-10-04T05:01:20;12.30;99.90
18189;DHT22;9219;50.396;8.546;2022-10-04T05:03:59;12.40;99.90
18189;DHT22;9219;50.396;8.546;2022-10-04T05:06:34;12.40;99.90
18189;DHT22;9219;50.396;8.546;2022-10-04T05:09:03;12.40;99.90
18189;DHT22;9219;50.396;8.546;2022-10-04T05:11:33;12.40;99.90
18189;DHT22;9219;50.396;8.546;2022-10-04T05:14:04;12.30;99.90
18189;DHT22;9219;50.396;8.546;2022-10-04T05:16:37;12.40;99.90
18189;DHT22;9219;50.396;8.546;2022-10-04T05:25:25;12.30;99.90
18189;DHT22;9219;50.396;8.546;2022-10-04T05:27:57;12.20;99.90
18189;DHT22;9219;50.396;8.546;2022-10-04T05:30:36;12.10;99.90
18189;DHT22;9219;50.396;8.546;2022-10-04T05:33:10;12.10;99.90
18189;DHT22;9219;50.396;8.546;2022-10-04T05:35:57;12.00;99.90
18189;DHT22;9219;50.396;8.546;2022-10-04T05:38:32;11.90;99.90
18189;DHT22;9219;50.396;8.546;2022-10-04T05:41:07;11.90;99.90
18189;DHT22;9219;50.396;8.546;2022-10-04T05:43:37;11.90;99.90
18189;DHT22;9219;50.396;8.546;2022-10-04T05:51:26;12.00;99.90
18189;DHT22;9219;50.396;8.546;2022-10-04T05:53:55;12.00;99.90
18189;DHT22;9219;50.396;8.546;2022-10-04T05:59:35;12.10;99.90
18189;DHT22;9219;50.396;8.546;2022-10-04T06:02:16;12.20;99.90
18189;DHT22;9219;50.396;8.546;2022-10-04T06:04:56;12.20;99.90
18189;DHT22;9219;50.396;8.546;2022-10-04T06:07:34;12.20;99.90
18189;DHT22;9219;50.396;8.546;2022-10-04T06:15:55;12.10;99.90
18189;DHT22;9219;50.396;8.546;2022-10-04T06:18:51;12.10;99.90
18189;DHT22;9219;50.396;8.546;2022-10-04T06:21:26;12.20;99.90
18189;DHT22;9219;50.396;8.546;2022-10-04T06:24:00;12.40;99.90
18189;DHT22;9219;50.396;8.546;2022-10-04T06:26:35;12.40;99.90
18189;DHT22;9219;50.396;8.546;2022-10-04T06:29:10;12.40;99.90
18189;DHT22;9219;50.396;8.546;2022-10-04T06:32:06;12.40;99.90
18189;DHT22;9219;50.396;8.546;2022-10-04T06:34:57;12.40;99.90
18189;DHT22;9219;50.396;8.546;2022-10-04T06:43:21;12.30;99.90
18189;DHT22;9219;50.396;8.546;2022-10-04T06:46:08;12.20;99.90
18189;DHT22;9219;50.396;8.546;2022-10-04T06:51:41;12.10;99.90
18189;DHT22;9219;50.396;8.546;2022-10-04T06:54:25;12.20;99.90
18189;DHT22;9219;50.396;8.546;2022-10-04T06:57:21;12.10;99.90
18189;DHT22;9219;50.396;8.546;2022-10-04T07:00:06;12.00;99.90
18189;DHT22;9219;50.396;8.546;2022-10-04T07:07:42;12.00;99.90
18189;DHT22;9219;50.396;8.546;2022-10-04T07:10:32;11.90;99.90
18189;DHT22;9219;50.396;8.546;2022-10-04T07:13:12;11.80;99.90
18189;DHT22;9219;50.396;8.546;2022-10-04T07:15:46;11.80;99.90
18189;DHT22;9219;50.396;8.546;2022-10-04T07:18:21;11.70;99.90
18189;DHT22;9219;50.396;8.546;2022-10-04T07:20:59;11.70;99.90
18189;DHT22;9219;50.396;8.546;2022-10-04T07:23:31;11.80;99.90
18189;DHT22;9219;50.396;8.546;2022-10-04T07:31:13;11.90;99.90
18189;DHT22;9219;50.396;8.546;2022-10-04T07:33:44;12.10;99.90
18189;DHT22;9219;50.396;8.546;2022-10-04T07:36:17;12.20;99.90
18189;DHT22;9219;50.396;8.546;2022-10-04T07:38:52;12.40;99.90
18189;DHT22;9219;50.396;8.546;2022-10-04T07:41:24;12.60;99.90
18189;DHT22;9219;50.396;8.546;2022-10-04T07:43:56;12.70;99.90
18189;DHT22;9219;50.396;8.546;2022-10-04T07:46:37;12.90;99.90
18189;DHT22;9219;50.396;8.546;2022-10-04T07:54:15;13.10;99.90
18189;DHT22;9219;50.396;8.546;2022-10-04T07:56:50;13.30;99.90
18189;DHT22;9219;50.396;8.546;2022-10-04T07:59:29;13.40;99.90
18189;DHT22;9219;50.396;8.546;2022-10-04T08:02:15;13.60;99.90
18189;DHT22;9219;50.396;8.546;2022-10-04T08:04:51;13.70;99.90
18189;DHT22;9219;50.396;8.546;2022-10-04T08:07:29;13.90;99.90
18189;DHT22;9219;50.396;8.546;2022-10-04T08:15:34;13.90;99.90
18189;DHT22;9219;50.396;8.546;2022-10-04T08:18:25;14.00;99.90
18189;DHT22;9219;50.396;8.546;2022-10-04T08:20:58;14.20;99.90
18189;DHT22;9219;50.396;8.546;2022-10-04T08:26:46;14.40;99.90
18189;DHT22;9219;50.396;8.546;2022-10-04T08:29:45;14.60;99.90
18189;DHT22;9219;50.396;8.546;2022-10-04T08:41:35;14.90;99.90
18189;DHT22;9219;50.396;8.546;2022-10-04T08:44:42;15.20;99.90
18189;DHT22;9219;50.396;8.546;2022-10-04T08:47:57;15.30;99.90
18189;DHT22;9219;50.396;8.546;2022-10-04T08:59:53;15.70;99.90
18189;DHT22;9219;50.396;8.546;2022-10-04T09:02:53;15.70;99.90
18189;DHT22;9219;50.396;8.546;2022-10-04T09:08:40;15.90;99.90
18189;DHT22;9219;50.396;8.546;2022-10-04T09:11:28;15.90;99.90
18189;DHT22;9219;50.396;8.546;2022-10-04T09:14:31;16.10;99.90
18189;DHT22;9219;50.396;8.546;2022-10-04T09:20:04;16.20;99.90
18189;DHT22;9219;50.396;8.546;2022-10-04T09:23:05;16.30;99.90
18189;DHT22;9219;50.396;8.546;2022-10-04T09:25:52;16.40;99.90
18189;DHT22;9219;50.396;8.546;2022-10-04T09:34:46;16.60;99.90
18189;DHT22;9219;50.396;8.546;2022-10-04T09:46:05;16.90;99.90
18189;DHT22;9219;50.396;8.546;2022-10-04T09:48:40;17.10;99.90
18189;DHT22;9219;50.396;8.546;2022-10-04T09:51:36;17.20;99.90
18189;DHT22;9219;50.396;8.546;2022-10-04T09:54:28;17.30;99.90
18189;DHT22;9219;50.396;8.546;2022-10-04T10:00:21;17.60;99.90
18189;DHT22;9219;50.396;8.546;2022-10-04T10:03:18;17.70;99.90
18189;DHT22;9219;50.396;8.546;2022-10-04T10:06:26;17.70;99.90
18189;DHT22;9219;50.396;8.546;2022-10-04T10:09:27;17.80;99.90
18189;DHT22;9219;50.396;8.546;2022-10-04T10:12:27;17.70;99.90
18189;DHT22;9219;50.396;8.546;2022-10-04T10:15:25;17.90;99.90
18189;DHT22;9219;50.396;8.546;2022-10-04T10:22:57;18.10;99.90
18189;DHT22;9219;50.396;8.546;2022-10-04T10:25:43;18.20;99.90
18189;DHT22;9219;50.396;8.546;2022-10-04T10:28:29;18.30;99.90
18189;DHT22;9219;50.396;8.546;2022-10-04T10:31:17;18.40;99.90
18189;DHT22;9219;50.396;8.546;2022-10-04T10:34:18;18.60;99.90
18189;DHT22;9219;50.396;8.546;2022-10-04T10:37:06;18.60;99.90
18189;DHT22;9219;50.396;8.546;2022-10-04T10:47:52;18.70;99.90
18189;DHT22;9219;50.396;8.546;2022-10-04T10:50:33;18.50;99.90
18189;DHT22;9219;50.396;8.546;2022-10-04T10:56:37;19.00;99.90
18189;DHT22;9219;50.396;8.546;2022-10-04T11:02:55;19.10;99.90
18189;DHT22;9219;50.396;8.546;2022-10-04T11:06:04;19.20;99.90
18189;DHT22;9219;50.396;8.546;2022-10-04T11:14:40;19.70;99.90
18189;DHT22;9219;50.396;8.546;2022-10-04T11:17:37;20.00;99.90
18189;DHT22;9219;50.396;8.546;2022-10-04T11:20:48;20.00;99.90
18189;DHT22;9219;50.396;8.546;2022-10-04T11:26:57;20.40;99.90
18189;DHT22;9219;50.396;8.546;2022-10-04T11:38:25;21.00;99.90
18189;DHT22;9219;50.396;8.546;2022-10-04T11:41:08;21.20;99.90
18189;DHT22;9219;50.396;8.546;2022-10-04T11:44:04;21.50;99.90
18189;DHT22;9219;50.396;8.546;2022-10-04T11:46:47;21.50;99.90
18189;DHT22;9219;50.396;8.546;2022-10-04T11:49:40;21.60;99.90
18189;DHT22;9219;50.396;8.546;2022-10-04T11:52:36;21.60;99.90
18189;DHT22;9219;50.396;8.546;2022-10-04T11:58:30;21.60;99.90
18189;DHT22;9219;50.396;8.546;2022-10-04T12:01:32;21.70;99.90
18189;DHT22;9219;50.396;8.546;2022-10-04T12:04:30;21.70;99.90
18189;DHT22;9219;50.396;8.546;2022-10-04T12:07:19;21.90;99.90
18189;DHT22;9219;50.396;8.546;2022-10-04T12:10:03;21.90;99.90
18189;DHT22;9219;50.396;8.546;2022-10-04T12:12:58;22.00;99.90
18189;DHT22;9219;50.396;8.546;2022-10-04T12:15:40;22.20;99.90
18189;DHT22;9219;50.396;8.546;2022-10-04T12:26:53;22.30;99.90
18189;DHT22;9219;50.396;8.546;2022-10-04T12:32:34;22.70;99.90
18189;DHT22;9219;50.396;8.546;2022-10-04T12:35:17;22.60;99.90
18189;DHT22;9219;50.396;8.546;2022-10-04T12:40:57;22.60;99.90
18189;DHT22;9219;50.396;8.546;2022-10-04T12:48:42;22.60;99.90
18189;DHT22;9219;50.396;8.546;2022-10-04T12:51:29;22.40;99.90
18189;DHT22;9219;50.396;8.546;2022-10-04T12:54:15;22.30;99.90
18189;DHT22;9219;50.396;8.546;2022-10-04T12:56:46;22.10;99.90
18189;DHT22;9219;50.396;8.546;2022-10-04T12:59:34;22.20;99.90
18189;DHT22;9219;50.396;8.546;2022-10-04T13:02:15;22.00;99.90
18189;DHT22;9219;50.396;8.546;2022-10-04T13:04:49;22.00;99.90
18189;DHT22;9219;50.396;8.546;2022-10-04T13:15:01;22.00;99.90
18189;DHT22;9219;50.396;8.546;2022-10-04T13:17:40;22.00;99.90
18189;DHT22;9219;50.396;8.546;2022-10-04T13:20:34;21.80;99.90
18189;DHT22;9219;50.396;8.546;2022-10-04T13:23:10;21.60;99.90
18189;DHT22;9219;50.396;8.546;2022-10-04T13:26:01;21.50;99.90
18189;DHT22;9219;50.396;8.546;2022-10-04T13:28:42;21.50;99.90
18189;DHT22;9219;50.396;8.546;2022-10-04T13:31:21;21.20;99.90
18189;DHT22;9219;50.396;8.546;2022-10-04T13:42:16;20.90;99.90
18189;DHT22;9219;50.396;8.546;2022-10-04T13:45:08;20.80;99.90
18189;DHT22;9219;50.396;8.546;2022-10-04T13:51:06;20.70;99.90
18189;DHT22;9219;50.396;8.546;2022-10-04T13:53:48;20.80;99.90
18189;DHT22;9219;50.396;8.546;2022-10-04T14:08:35;20.30;99.90
18189;DHT22;9219;50.396;8.546;2022-10-04T14:11:41;20.30;99.90
18189;DHT22;9219;50.396;8.546;2022-10-04T14:20:56;20.20;99.90
18189;DHT22;9219;50.396;8.546;2022-10-04T14:32:24;19.80;99.90
18189;DHT22;9219;50.396;8.546;2022-10-04T14:35:01;19.80;99.90
18189;DHT22;9219;50.396;8.546;2022-10-04T14:38:00;19.80;99.90
18189;DHT22;9219;50.396;8.546;2022-10-04T14:52:25;19.40;99.90
18189;DHT22;9219;50.396;8.546;2022-10-04T14:55:09;19.40;99.90
18189;DHT22;9219;50.396;8.546;2022-10-04T14:57:53;19.20;99.90
18189;DHT22;9219;50.396;8.546;2022-10-04T15:00:29;19.00;99.90
18189;DHT22;9219;50.396;8.546;2022-10-04T15:03:18;19.00;99.90
18189;DHT22;9219;50.396;8.546;2022-10-04T15:06:07;19.10;99.90
18189;DHT22;9219;50.396;8.546;2022-10-04T15:08:53;19.20;99.90
18189;DHT22;9219;50.396;8.546;2022-10-04T15:16:42;19.10;99.90
18189;DHT22;9219;50.396;8.546;2022-10-04T15:19:27;18.90;99.90
18189;DHT22;9219;50.396;8.546;2022-10-04T15:22:04;18.70;99.90
18189;DHT22;9219;50.396;8.546;2022-10-04T15:24:46;18.70;99.90
18189;DHT22;9219;50.396;8.546;2022-10-04T15:30:28;18.70;99.90
18189;DHT22;9219;50.396;8.546;2022-10-04T15:33:18;18.60;99.90
18189;DHT22;9219;50.396;8.546;2022-10-04T15:41:18;18.60;99.90
18189;DHT22;9219;50.396;8.546;2022-10-04T15:44:19;18.40;99.90
18189;DHT22;9219;50.396;8.546;2022-10-04T15:46:56;18.30;99.90
18189;DHT22;9219;50.396;8.546;2022-10-04T15:49:49;18.10;99.90
18189;DHT22;9219;50.396;8.546;2022-10-04T15:52:43;18.10;99.90
18189;DHT22;9219;50.396;8.546;2022-10-04T15:55:26;18.10;99.90
18189;DHT22;9219;50.396;8.546;2022-10-04T16:06:07;18.10;99.90
18189;DHT22;9219;50.396;8.546;2022-10-04T16:08:55;18.20;99.90
18189;DHT22;9219;50.396;8.546;2022-10-04T16:11:43;18.10;99.90
18189;DHT22;9219;50.396;8.546;2022-10-04T16:14:31;17.90;99.90
18189;DHT22;9219;50.396;8.546;2022-10-04T16:17:25;17.90;99.90
18189;DHT22;9219;50.396;8.546;2022-10-04T16:31:50;17.40;99.90
18189;DHT22;9219;50.396;8.546;2022-10-04T16:34:47;17.40;99.90
18189;DHT22;9219;50.396;8.546;2022-10-04T16:37:35;17.30;99.90
18189;DHT22;9219;50.396;8.546;2022-10-04T16:40:20;17.10;99.90
18189;DHT22;9219;50.396;8.546;2022-10-04T16:42:54;17.00;99.90
18189;DHT22;9219;50.396;8.546;2022-10-04T16:48:47;17.00;99.90
18189;DHT22;9219;50.396;8.546;2022-10-04T16:54:41;16.90;99.90
18189;DHT22;9219;50.396;8.546;2022-10-04T16:57:19;16.90;99.90
18189;DHT22;9219;50.396;8.546;2022-10-04T17:00:30;16.90;99.90
18189;DHT22;9219;50.396;8.546;2022-10-04T17:03:12;16.90;99.90
18189;DHT22;9219;50.396;8.546;2022-10-04T17:06:01;17.00;99.90
18189;DHT22;9219;50.396;8.546;2022-10-04T17:13:58;16.80;99.90
18189;DHT22;9219;50.396;8.546;2022-10-04T17:16:35;16.70;99.90
18189;DHT22;9219;50.396;8.546;2022-10-04T17:19:19;16.70;99.90
18189;DHT22;9219;50.396;8.546;2022-10-04T17:22:09;16.70;99.90
18189;DHT22;9219;50.396;8.546;2022-10-04T17:24:54;16.60;99.90
18189;DHT22;9219;50.396;8.546;2022-10-04T17:27:44;16.60;99.90
18189;DHT22;9219;50.396;8.546;2022-10-04T17:30:17;16.60;99.90
18189;DHT22;9219;50.396;8.546;2022-10-04T17:38:12;16.70;99.90
18189;DHT22;9219;50.396;8.546;2022-10-04T17:40:49;16.70;99.90
18189;DHT22;9219;50.396;8.546;2022-10-04T17:43:28;16.60;99.90
18189;DHT22;9219;50.396;8.546;2022-10-04T17:46:10;16.60;99.90
18189;DHT22;9219;50.396;8.546;2022-10-04T17:48:45;16.50;99.90
18189;DHT22;9219;50.396;8.546;2022-10-04T17:51:39;16.50;99.90
18189;DHT22;9219;50.396;8.546;2022-10-04T17:54:30;16.40;99.90
18189;DHT22;9219;50.396;8.546;2022-10-04T18:02:44;16.50;99.90
18189;DHT22;9219;50.396;8.546;2022-10-04T18:05:24;16.50;99.90
18189;DHT22;9219;50.396;8.546;2022-10-04T18:07:59;16.40;99.90
18189;DHT22;9219;50.396;8.546;2022-10-04T18:10:32;16.50;99.90
18189;DHT22;9219;50.396;8.546;2022-10-04T18:13:10;16.50;99.90
18189;DHT22;9219;50.396;8.546;2022-10-04T18:15:50;16.60;99.90
18189;DHT22;9219;50.396;8.546;2022-10-04T18:18:26;16.50;99.90
18189;DHT22;9219;50.396;8.546;2022-10-04T18:26:11;16.50;99.90
18189;DHT22;9219;50.396;8.546;2022-10-04T18:28:48;16.50;99.90
18189;DHT22;9219;50.396;8.546;2022-10-04T18:31:36;16.50;99.90
18189;DHT22;9219;50.396;8.546;2022-10-04T18:34:25;16.40;99.90
18189;DHT22;9219;50.396;8.546;2022-10-04T18:37:11;16.40;99.90
18189;DHT22;9219;50.396;8.546;2022-10-04T18:39:50;16.50;99.90
18189;DHT22;9219;50.396;8.546;2022-10-04T18:42:29;16.50;99.90
18189;DHT22;9219;50.396;8.546;2022-10-04T18:50:23;16.30;99.90
18189;DHT22;9219;50.396;8.546;2022-10-04T18:53:37;16.40;99.90
18189;DHT22;9219;50.396;8.546;2022-10-04T18:56:12;16.40;99.90
18189;DHT22;9219;50.396;8.546;2022-10-04T18:58:56;16.40;99.90
18189;DHT22;9219;50.396;8.546;2022-10-04T19:01:54;16.30;99.90
18189;DHT22;9219;50.396;8.546;2022-10-04T19:04:42;16.20;99.90
18189;DHT22;9219;50.396;8.546;2022-10-04T19:07:28;16.30;99.90
18189;DHT22;9219;50.396;8.546;2022-10-04T19:15:35;16.30;99.90
18189;DHT22;9219;50.396;8.546;2022-10-04T19:18:32;16.30;99.90
18189;DHT22;9219;50.396;8.546;2022-10-04T19:21:20;16.20;99.90
18189;DHT22;9219;50.396;8.546;2022-10-04T19:24:13;16.20;99.90
18189;DHT22;9219;50.396;8.546;2022-10-04T19:26:58;16.30;99.90
18189;DHT22;9219;50.396;8.546;2022-10-04T19:29:54;16.40;99.90
18189;DHT22;9219;50.396;8.546;2022-10-04T19:40:57;16.20;99.90
18189;DHT22;9219;50.396;8.546;2022-10-04T19:43:39;16.40;99.90
18189;DHT22;9219;50.396;8.546;2022-10-04T19:46:24;16.40;99.90
18189;DHT22;9219;50.396;8.546;2022-10-04T19:49:12;16.30;99.90
18189;DHT22;9219;50.396;8.546;2022-10-04T19:51:53;16.30;99.90
18189;DHT22;9219;50.396;8.546;2022-10-04T19:54:39;16.40;99.90
18189;DHT22;9219;50.396;8.546;2022-10-04T19:57:36;16.50;99.90
18189;DHT22;9219;50.396;8.546;2022-10-04T20:05:25;16.40;99.90
18189;DHT22;9219;50.396;8.546;2022-10-04T20:07:58;16.30;99.90
18189;DHT22;9219;50.396;8.546;2022-10-04T20:10:37;16.20;99.90
18189;DHT22;9219;50.396;8.546;2022-10-04T20:13:20;16.30;99.90
18189;DHT22;9219;50.396;8.546;2022-10-04T20:15:56;16.20;99.90
18189;DHT22;9219;50.396;8.546;2022-10-04T20:18:57;16.20;99.90
18189;DHT22;9219;50.396;8.546;2022-10-04T20:21:40;16.30;99.90
18189;DHT22;9219;50.396;8.546;2022-10-04T20:32:58;16.50;99.90
18189;DHT22;9219;50.396;8.546;2022-10-04T20:36:04;16.50;99.90
18189;DHT22;9219;50.396;8.546;2022-10-04T20:38:49;16.50;99.90
18189;DHT22;9219;50.396;8.546;2022-10-04T20:45:05;16.40;99.90
18189;DHT22;9219;50.396;8.546;2022-10-04T20:53:01;16.30;99.90
18189;DHT22;9219;50.396;8.546;2022-10-04T20:55:36;16.20;99.90
18189;DHT22;9219;50.396;8.546;2022-10-04T20:58:35;16.20;99.90
18189;DHT22;9219;50.396;8.546;2022-10-04T21:01:18;16.20;99.90
18189;DHT22;9219;50.396;8.546;2022-10-04T21:04:12;16.00;99.90
18189;DHT22;9219;50.396;8.546;2022-10-04T21:06:52;16.00;99.90
18189;DHT22;9219;50.396;8.546;2022-10-04T21:14:24;15.90;99.90
18189;DHT22;9219;50.396;8.546;2022-10-04T21:16:52;15.90;99.90
18189;DHT22;9219;50.396;8.546;2022-10-04T21:19:48;16.00;99.90
18189;DHT22;9219;50.396;8.546;2022-10-04T21:22:35;15.80;99.90
18189;DHT22;9219;50.396;8.546;2022-10-04T21:25:27;15.70;99.90
18189;DHT22;9219;50.396;8.546;2022-10-04T21:28:28;15.50;99.90
18189;DHT22;9219;50.396;8.546;2022-10-04T21:30:58;15.40;99.90
18189;DHT22;9219;50.396;8.546;2022-10-04T21:36:36;15.30;99.90
18189;DHT22;9219;50.396;8.546;2022-10-04T21:39:04;15.40;99.90
18189;DHT22;9219;50.396;8.546;2022-10-04T21:41:31;15.50;99.90
18189;DHT22;9219;50.396;8.546;2022-10-04T21:43:59;15.50;99.90
18189;DHT22;9219;50.396;8.546;2022-10-04T21:46:27;15.30;99.90
18189;DHT22;9219;50.396;8.546;2022-10-04T21:48:54;15.40;99.90
18189;DHT22;9219;50.396;8.546;2022-10-04T21:51:21;15.40;99.90
18189;DHT22;9219;50.396;8.546;2022-10-04T21:56:30;15.50;99.90
18189;DHT22;9219;50.396;8.546;2022-10-04T21:58:57;15.40;99.90
18189;DHT22;9219;50.396;8.546;2022-10-04T22:01:25;15.40;99.90
18189;DHT22;9219;50.396;8.546;2022-10-04T22:03:52;15.30;99.90
18189;DHT22;9219;50.396;8.546;2022-10-04T22:06:20;15.30;99.90
18189;DHT22;9219;50.396;8.546;2022-10-04T22:08:48;15.30;99.90
18189;DHT22;9219;50.396;8.546;2022-10-04T22:11:15;15.30;99.90
18189;DHT22;9219;50.396;8.546;2022-10-04T22:13:43;15.30;99.90
18189;DHT22;9219;50.396;8.546;2022-10-04T22:21:16;15.50;99.90
18189;DHT22;9219;50.396;8.546;2022-10-04T22:23:44;15.40;99.90
18189;DHT22;9219;50.396;8.546;2022-10-04T22:26:14;15.50;99.90
18189;DHT22;9219;50.396;8.546;2022-10-04T22:28:44;15.30;99.90
18189;DHT22;9219;50.396;8.546;2022-10-04T22:31:12;15.20;99.90
18189;DHT22;9219;50.396;8.546;2022-10-04T22:33:42;15.20;99.90
18189;DHT22;9219;50.396;8.546;2022-10-04T22:36:14;15.20;99.90
18189;DHT22;9219;50.396;8.546;2022-10-04T22:38:47;15.20;99.90
18189;DHT22;9219;50.396;8.546;2022-10-04T22:46:32;15.30;99.90
18189;DHT22;9219;50.396;8.546;2022-10-04T22:49:00;15.10;99.90
18189;DHT22;9219;50.396;8.546;2022-10-04T22:51:29;15.20;99.90
18189;DHT22;9219;50.396;8.546;2022-10-04T22:53:56;15.30;99.90
18189;DHT22;9219;50.396;8.546;2022-10-04T22:56:24;15.30;99.90
18189;DHT22;9219;50.396;8.546;2022-10-04T22:58:51;15.50;99.90
18189;DHT22;9219;50.396;8.546;2022-10-04T23:01:19;15.50;99.90
18189;DHT22;9219;50.396;8.546;2022-10-04T23:03:49;15.50;99.90
18189;DHT22;9219;50.396;8.546;2022-10-04T23:11:24;15.40;99.90
18189;DHT22;9219;50.396;8.546;2022-10-04T23:13:52;15.40;99.90
18189;DHT22;9219;50.396;8.546;2022-10-04T23:16:21;15.40;99.90
18189;DHT22;9219;50.396;8.546;2022-10-04T23:18:49;15.40;99.90
18189;DHT22;9219;50.396;8.546;2022-10-04T23:21:20;15.40;99.90
18189;DHT22;9219;50.396;8.546;2022-10-04T23:23:48;15.40;99.90
18189;DHT22;9219;50.396;8.546;2022-10-04T23:26:21;15.40;99.90
18189;DHT22;9219;50.396;8.546;2022-10-04T23:28:50;15.40;99.90
18189;DHT22;9219;50.396;8.546;2022-10-04T23:34:32;15.50;99.90
18189;DHT22;9219;50.396;8.546;2022-10-04T23:37:00;15.40;99.90
18189;DHT22;9219;50.396;8.546;2022-10-04T23:39:30;15.40;99.90
18189;DHT22;9219;50.396;8.546;2022-10-04T23:41:59;15.40;99.90
18189;DHT22;9219;50.396;8.546;2022-10-04T23:44:32;15.50;99.90
18189;DHT22;9219;50.396;8.546;2022-10-04T23:47:00;15.50;99.90
18189;DHT22;9219;50.396;8.546;2022-10-04T23:49:30;15.40;99.90
18189;DHT22;9219;50.396;8.546;2022-10-04T23:52:00;15.40;99.90
